Decoded TAF's for South Africa

 
Print Page
 
 

Bloemfontein - South Africa, FABL

ADDS - TAFS form results

Aviation Digital Data Service (ADDS)

Output produced by TAFs form (1206 UTC 21 September 2017)
found at http://aviationweather.gov/adds/tafs/
 
Forecast for: FABL (BLOEMFONTEIN/HER, ZA)
Text: TAF FABL 211000Z 2112/2212 35015KT CAVOK
Forecast period: 1200 to 1600 UTC 21 September 2017
Forecast type: FROM: standard forecast or significant change
Winds: from the N (350 degrees) at 17 MPH (15 knots; 7.8 m/s)
Visibility: 6 or more miles (10+ km)
Clouds: not forecast
Weather: NSW  (no significant weather)
Text: FM211600 33008KT CAVOK
Forecast period: 1600 UTC 21 September 2017 to 0700 UTC 22 September 2017
Forecast type: FROM: standard forecast or significant change
Winds: from the NNW (330 degrees) at 9 MPH (8 knots; 4.2 m/s)
Visibility: 6 or more miles (10+ km)
Clouds: not forecast
Weather: NSW  (no significant weather)
Text: BECMG 2207/2209 31015KT
Forecast period: 0700 to 1000 UTC 22 September 2017
Forecast type: BECOMING: Conditions expected to become as follows by 0900 UTC 22 September 2017
Winds: from the NW (310 degrees) at 17 MPH (15 knots; 7.8 m/s)
Visibility: 6 or more miles (10+ km)
Weather: NSW  (no significant weather)
Text: BECMG 2210/2212 SCT060TCU TX32/2113Z TN16/2204Z
Forecast period: 1000 to 1200 UTC 22 September 2017
Forecast type: BECOMING: Conditions expected to become as follows by 1200 UTC 22 September 2017
Winds: from the NW (310 degrees) at 17 MPH (15 knots; 7.8 m/s)
Visibility: 6 or more miles (10+ km)
Clouds: scattered clouds at 6000 feet AGL
Weather: NSW  (no significant weather)

Array
Cape Town - South Africa, FACT

ADDS - TAFS form results

Aviation Digital Data Service (ADDS)

Output produced by TAFs form (1206 UTC 21 September 2017)
found at http://aviationweather.gov/adds/tafs/
 
Forecast for: FACT (CAPETOWN/DF MALA, ZA)
Text: TAF FACT 211000Z 2112/2218 33013KT 9999 SCT006
Forecast period: 1200 to 1700 UTC 21 September 2017
Forecast type: FROM: standard forecast or significant change
Winds: from the NNW (330 degrees) at 15 MPH (13 knots; 6.8 m/s)
Visibility: 6 or more miles (10+ km)
Clouds: scattered clouds at 600 feet AGL
Weather: no significant weather forecast for this period
Text: PROB30
Forecast period: 1200 to 1400 UTC 21 September 2017
Forecast type: TEMPORARY: The following changes expected for less than half the time period
Visibility: 0.75 miles (1.21 km)
Ceiling: 300 feet AGL
Clouds: broken clouds at 300 feet AGL
Weather: BCFG  (patches of fog)
Text: TEMPO 2112/2114 1200 BCFG BKN003
Forecast period: 1700 UTC 21 September 2017 to 1300 UTC 22 September 2017
Forecast type: FROM: standard forecast or significant change
Winds: from the NNW (340 degrees) at 12 MPH (10 knots; 5.2 m/s)
Visibility: 6 or more miles (10+ km)
Ceiling: 2000 feet AGL
Clouds: scattered clouds at 600 feet AGL
broken clouds at 2000 feet AGL
Weather: no significant weather forecast for this period
Text: FM211700 34010KT 9999 SCT006 BKN020
Forecast period: 1700 UTC 21 September 2017 to 0000 UTC 22 September 2017
Forecast type: TEMPORARY: The following changes expected for less than half the time period
Ceiling: 600 feet AGL
Clouds: broken clouds at 600 feet AGL
Weather: no significant weather forecast for this period
Text: PROB40
Forecast period: 1200 to 1600 UTC 22 September 2017
Forecast type: TEMPORARY: The following changes expected for less than half the time period
Visibility: 2.49 miles (4.01 km)
Ceiling: 800 feet AGL
Clouds: broken clouds at 800 feet AGL
Weather: -RA  (light rain)
Text: TEMPO 2117/2124 BKN006
Forecast period: 1300 to 1800 UTC 22 September 2017
Forecast type: BECOMING: Conditions expected to become as follows by 1500 UTC 22 September 2017
Winds: from the S (180 degrees) at 17 MPH (15 knots; 7.8 m/s)
Visibility: 6 or more miles (10+ km)
Ceiling: 2000 feet AGL
Clouds: scattered clouds at 600 feet AGL
broken clouds at 2000 feet AGL
Weather: no significant weather forecast for this period

Array
Durban - South Africa, FALE

ADDS - TAFS form results

Aviation Digital Data Service (ADDS)

Output produced by TAFs form (1206 UTC 21 September 2017)
found at http://aviationweather.gov/adds/tafs/
 
Forecast for: FALE (DURBAN SHAKA , ZA)
Text: TAF FALE 211000Z 2112/2218 04015KT 9999 SCT030
Forecast period: 1200 to 1800 UTC 21 September 2017
Forecast type: FROM: standard forecast or significant change
Winds: from the NE (40 degrees) at 17 MPH (15 knots; 7.8 m/s)
Visibility: 6 or more miles (10+ km)
Clouds: scattered clouds at 3000 feet AGL
Weather: no significant weather forecast for this period
Text: PROB30
Forecast period: 1500 to 2000 UTC 21 September 2017
Forecast type: TEMPORARY: The following changes expected for less than half the time period
Visibility: 3 miles (5 km)
Ceiling: 1500 feet AGL
Clouds: broken clouds at 1500 feet AGL
few clouds at 3500 feet AGL
broken clouds at 4000 feet AGL
Weather: TSRA  (rain associated with thunderstorm(s))
Text: TEMPO 2115/2120 5000 TSRA BKN015 FEW035CB BKN040
Forecast period: 1800 to 2200 UTC 21 September 2017
Forecast type: BECOMING: Conditions expected to become as follows by 2000 UTC 21 September 2017
Winds: from the NNE (20 degrees) at 6 MPH (5 knots; 2.6 m/s)
Visibility: 6 or more miles (10+ km)
Clouds: scattered clouds at 3000 feet AGL
Weather: no significant weather forecast for this period
Text: BECMG 2118/2120 02005KT
Forecast period: 2200 UTC 21 September 2017 to 0800 UTC 22 September 2017
Forecast type: FROM: standard forecast or significant change
Winds: from the SSW (200 degrees) at 14 MPH (12 knots; 6.2 m/s)
Visibility: 6 or more miles (10+ km)
Ceiling: 2000 feet AGL
Clouds: broken clouds at 2000 feet AGL
Weather: no significant weather forecast for this period
Text: FM212200 20012KT 9999 BKN020
Forecast period: 0800 to 1400 UTC 22 September 2017
Forecast type: FROM: standard forecast or significant change
Winds: from the NE (40 degrees) at 17 MPH (15 knots; 7.8 m/s)
Visibility: 6 or more miles (10+ km)
Clouds: not forecast
Weather: NSW  (no significant weather)
Text: FM220800 04015KT CAVOK
Forecast period: 1400 to 1800 UTC 22 September 2017
Forecast type: BECOMING: Conditions expected to become as follows by 1600 UTC 22 September 2017
Winds: from the SSW (200 degrees) at 23 MPH (20 knots; 10.4 m/s)
gusting to 34 MPH (30 knots; 15.6 m/s)
Visibility: 6 or more miles (10+ km)
Ceiling: 1500 feet AGL
Clouds: broken clouds at 1500 feet AGL
Weather: NSW  (no significant weather)
Text: BECMG 2214/2216 20020G30KT BKN015
Forecast period: 1600 to 1800 UTC 22 September 2017
Forecast type: TEMPORARY: The following changes expected for less than half the time period
Visibility: 2.49 miles (4.01 km)
Ceiling: 5000 feet AGL
Clouds: few clouds at 4000 feet AGL
broken clouds at 5000 feet AGL
Weather: TSRA  (rain associated with thunderstorm(s))

Array
East London - South Africa, FAEL

ADDS - TAFS form results

Aviation Digital Data Service (ADDS)

Output produced by TAFs form (1206 UTC 21 September 2017)
found at http://aviationweather.gov/adds/tafs/
 
Forecast for: FAEL (EAST LONDON/SCHO, ZA)
Text: TAF FAEL 210900Z 2110/2119 04015KT CAVOK
Forecast period: 1000 to 1900 UTC 21 September 2017
Forecast type: FROM: standard forecast or significant change
Winds: from the NE (40 degrees) at 17 MPH (15 knots; 7.8 m/s)
Visibility: 6 or more miles (10+ km)
Clouds: not forecast
Weather: NSW  (no significant weather)
Text: TEMPO 2110/2112 04015G25KT
Forecast period: 1000 to 1200 UTC 21 September 2017
Forecast type: TEMPORARY: The following changes expected for less than half the time period
Winds: from the NE (40 degrees) at 17 MPH (15 knots; 7.8 m/s)
gusting to 29 MPH (25 knots; 13.0 m/s)
Weather: no significant weather forecast for this period
Text: PROB30
Forecast period: 1500 to 1800 UTC 21 September 2017
Forecast type: TEMPORARY: The following changes expected for less than half the time period
Visibility: 4 miles (6 km)
Clouds: scattered clouds at 8000 feet AGL
Weather: -SHRA  (light rain showers)

Array
George - South Africa, FAGG

ADDS - TAFS form results

Aviation Digital Data Service (ADDS)

Output produced by TAFs form (1206 UTC 21 September 2017)
found at http://aviationweather.gov/adds/tafs/
 
Forecast for: FAGG (GEORGE/P. W. BOT, ZA)
Text: TAF FAGG 211000Z 2112/2212 25010KT CAVOK
Forecast period: 1200 to 1700 UTC 21 September 2017
Forecast type: FROM: standard forecast or significant change
Winds: from the WSW (250 degrees) at 12 MPH (10 knots; 5.2 m/s)
Visibility: 6 or more miles (10+ km)
Clouds: not forecast
Weather: NSW  (no significant weather)
Text: PROB30
Forecast period: 1200 to 1500 UTC 21 September 2017
Forecast type: TEMPORARY: The following changes expected for less than half the time period
Clouds: few clouds at 5000 feet AGL
Weather: TS  (thunderstorm)
Text: TEMPO 2112/2115 TS FEW050CB
Forecast period: 1700 UTC 21 September 2017 to 1200 UTC 22 September 2017
Forecast type: FROM: standard forecast or significant change
Winds: from the SW (230 degrees) at 9 MPH (8 knots; 4.2 m/s)
Visibility: 6 or more miles (10+ km)
Ceiling: 1000 feet AGL
Clouds: scattered clouds at 600 feet AGL
broken clouds at 1000 feet AGL
Weather: no significant weather forecast for this period
Text: FM211700 23008KT 9999 SCT006 BKN010
Forecast period: 2000 UTC 21 September 2017 to 1200 UTC 22 September 2017
Forecast type: TEMPORARY: The following changes expected for less than half the time period
Visibility: 1.86 miles (2.99 km)
Ceiling: 600 feet AGL
Clouds: broken clouds at 600 feet AGL
Weather: -DZ  (light drizzle)

Array
Hoedspruit - South Africa, FAHS

ADDS - TAFS form results

Aviation Digital Data Service (ADDS)

Output produced by TAFs form (1206 UTC 21 September 2017)
found at http://aviationweather.gov/adds/tafs/
 
Forecast for: FAHS (HOEDSPRUIT (SAAF, ZA)
Text: TAF FAHS 210900Z 2110/2118 04005KT 9999 SCT025
Forecast period: 1000 to 1100 UTC 21 September 2017
Forecast type: FROM: standard forecast or significant change
Winds: from the NE (40 degrees) at 6 MPH (5 knots; 2.6 m/s)
Visibility: 6 or more miles (10+ km)
Clouds: scattered clouds at 2500 feet AGL
Weather: no significant weather forecast for this period
Text: BECMG 2111/2113 CAVOK TX30/2113Z TN19/2118Z
Forecast period: 1100 to 1800 UTC 21 September 2017
Forecast type: BECOMING: Conditions expected to become as follows by 1300 UTC 21 September 2017
Winds: from the NE (40 degrees) at 6 MPH (5 knots; 2.6 m/s)
Visibility: 6 or more miles (10+ km)
Weather: no significant weather forecast for this period

Array
Lanseria - South Africa, FALA

ADDS - TAFS form results

Aviation Digital Data Service (ADDS)

Output produced by TAFs form (1206 UTC 21 September 2017)
found at http://aviationweather.gov/adds/tafs/
 
Forecast for: FALA (LANSERIA (CIV/MI, ZA)
Text: TAF FALA 211000Z 2112/2212 03010KT CAVOK
Forecast period: 1200 to 1700 UTC 21 September 2017
Forecast type: FROM: standard forecast or significant change
Winds: from the NNE (30 degrees) at 12 MPH (10 knots; 5.2 m/s)
Visibility: 6 or more miles (10+ km)
Clouds: not forecast
Weather: NSW  (no significant weather)
Text: FM211700 02005KT CAVOK
Forecast period: 1700 UTC 21 September 2017 to 0900 UTC 22 September 2017
Forecast type: FROM: standard forecast or significant change
Winds: from the NNE (20 degrees) at 6 MPH (5 knots; 2.6 m/s)
Visibility: 6 or more miles (10+ km)
Clouds: not forecast
Weather: NSW  (no significant weather)
Text: FM220900 36010KT CAVOK TX31/2212Z TN16/2204Z
Forecast period: 0900 to 1200 UTC 22 September 2017
Forecast type: FROM: standard forecast or significant change
Winds: from the N (360 degrees) at 12 MPH (10 knots; 5.2 m/s)
Visibility: 6 or more miles (10+ km)
Clouds: not forecast
Weather: no significant weather forecast for this period

Array
Makhado AFB - South Africa, FALM

ADDS - TAFS form results

Aviation Digital Data Service (ADDS)

Output produced by TAFs form (1206 UTC 21 September 2017)
found at http://aviationweather.gov/adds/tafs/
 
Forecast for: FALM (MAKHADO AFB , ZA)
Text: TAF FALM 210900Z 2110/2118 08010KT 9999 BKN020
Forecast period: 1000 to 1100 UTC 21 September 2017
Forecast type: FROM: standard forecast or significant change
Winds: from the E (80 degrees) at 12 MPH (10 knots; 5.2 m/s)
Visibility: 6 or more miles (10+ km)
Ceiling: 2000 feet AGL
Clouds: broken clouds at 2000 feet AGL
Weather: no significant weather forecast for this period
Text: BECMG 2111/2113 CAVOK TX31/2113Z TN24/2118Z
Forecast period: 1100 to 1800 UTC 21 September 2017
Forecast type: BECOMING: Conditions expected to become as follows by 1300 UTC 21 September 2017
Winds: from the E (80 degrees) at 12 MPH (10 knots; 5.2 m/s)
Visibility: 6 or more miles (10+ km)
Weather: no significant weather forecast for this period

Array
Mmabatho - South Africa, FAMM

ADDS - TAFS form results

Aviation Digital Data Service (ADDS)

Output produced by TAFs form (1206 UTC 21 September 2017)
found at http://aviationweather.gov/adds/tafs/
 
Forecast for: FAMM (MMABATHO INTL AR, ZA)
Text: TAF FAMM 210900Z 2110/2118 02013KT CAVOK
Forecast period: 1000 to 1800 UTC 21 September 2017
Forecast type: FROM: standard forecast or significant change
Winds: from the NNE (20 degrees) at 15 MPH (13 knots; 6.8 m/s)
Visibility: 6 or more miles (10+ km)
Clouds: not forecast
Weather: NSW  (no significant weather)
Text: TEMPO 2110/2113 02015G25KT TX31/2113Z TN21/2118Z
Forecast period: 1000 to 1300 UTC 21 September 2017
Forecast type: TEMPORARY: The following changes expected for less than half the time period
Winds: from the NNE (20 degrees) at 17 MPH (15 knots; 7.8 m/s)
gusting to 29 MPH (25 knots; 13.0 m/s)
Weather: no significant weather forecast for this period

Array
ORT Johannesburg - South Africa, FAOR

ADDS - TAFS form results

Aviation Digital Data Service (ADDS)

Output produced by TAFs form (1206 UTC 21 September 2017)
found at http://aviationweather.gov/adds/tafs/
 
Forecast for: FAOR (JOHANNESBURG/TAM, ZA)
Text: TAF FAOR 211000Z 2112/2218 01012KT CAVOK
Forecast period: 1200 UTC 21 September 2017 to 0200 UTC 22 September 2017
Forecast type: FROM: standard forecast or significant change
Winds: from the N (10 degrees) at 14 MPH (12 knots; 6.2 m/s)
Visibility: 6 or more miles (10+ km)
Clouds: not forecast
Weather: NSW  (no significant weather)
Text: FM220200 36007KT CAVOK
Forecast period: 0200 to 0900 UTC 22 September 2017
Forecast type: FROM: standard forecast or significant change
Winds: from the N (360 degrees) at 8 MPH (7 knots; 3.6 m/s)
Visibility: 6 or more miles (10+ km)
Clouds: not forecast
Weather: NSW  (no significant weather)
Text: FM220900 34011KT CAVOK TX29/2213Z TN14/2204Z
Forecast period: 0900 to 1800 UTC 22 September 2017
Forecast type: FROM: standard forecast or significant change
Winds: from the NNW (340 degrees) at 13 MPH (11 knots; 5.7 m/s)
Visibility: 6 or more miles (10+ km)
Clouds: not forecast
Weather: no significant weather forecast for this period

Array
Kruger Mpumalanga - South Africa, FAKN

ADDS - TAFS form results

Aviation Digital Data Service (ADDS)

Output produced by TAFs form (1206 UTC 21 September 2017)
found at http://aviationweather.gov/adds/tafs/
 
Forecast for: FAKN (KRUGER MPUMALANG, ZA)
Text: TAF FAKN 210900Z 2110/2118 03005KT CAVOK TX29/2113Z TN20/2118Z
Forecast period: 1000 to 1800 UTC 21 September 2017
Forecast type: FROM: standard forecast or significant change
Winds: from the NNE (30 degrees) at 6 MPH (5 knots; 2.6 m/s)
Visibility: 6 or more miles (10+ km)
Clouds: not forecast
Weather: no significant weather forecast for this period

Array
Pietermaritzburg - South Africa, FAPM

ADDS - TAFS form results

Aviation Digital Data Service (ADDS)

Output produced by TAFs form (1206 UTC 21 September 2017)
found at http://aviationweather.gov/adds/tafs/
 
Forecast for: FAPM (PIETERMARITZBURG, ZA)
Text: TAF FAPM 210600Z 2107/2118 12008KT 9999 SCT020
Forecast period: 0700 to 0800 UTC 21 September 2017
Forecast type: FROM: standard forecast or significant change
Winds: from the ESE (120 degrees) at 9 MPH (8 knots; 4.2 m/s)
Visibility: 6 or more miles (10+ km)
Clouds: scattered clouds at 2000 feet AGL
Weather: no significant weather forecast for this period
Text: FM210800 06005KT 9999 SCT020
Forecast period: 0800 to 1800 UTC 21 September 2017
Forecast type: FROM: standard forecast or significant change
Winds: from the ENE (60 degrees) at 6 MPH (5 knots; 2.6 m/s)
Visibility: 6 or more miles (10+ km)
Clouds: scattered clouds at 2000 feet AGL
Weather: no significant weather forecast for this period
Text: TEMPO 2113/2115 5000 TSRA BKN010 FEW035CB BKN035 TX29/2112Z TN14/2118Z
Forecast period: 1300 to 1500 UTC 21 September 2017
Forecast type: TEMPORARY: The following changes expected for less than half the time period
Visibility: 3 miles (5 km)
Ceiling: 1000 feet AGL
Clouds: broken clouds at 1000 feet AGL
few clouds at 3500 feet AGL
broken clouds at 3500 feet AGL
Weather: TSRA  (rain associated with thunderstorm(s))

Array
Polokwane - South Africa, FAPP

ADDS - TAFS form results

Aviation Digital Data Service (ADDS)

Output produced by TAFs form (1206 UTC 21 September 2017)
found at http://aviationweather.gov/adds/tafs/
 
Forecast for: FAPP (POLOKWANE INTL , ZA)
Text: TAF FAPP 210900Z 2110/2118 04007KT CAVOK TX27/2113Z TN19/2118Z
Forecast period: 1000 to 1800 UTC 21 September 2017
Forecast type: FROM: standard forecast or significant change
Winds: from the NE (40 degrees) at 8 MPH (7 knots; 3.6 m/s)
Visibility: 6 or more miles (10+ km)
Clouds: not forecast
Weather: no significant weather forecast for this period

Array
Port Elizabeth - South Africa, FAPE

ADDS - TAFS form results

Aviation Digital Data Service (ADDS)

Output produced by TAFs form (1206 UTC 21 September 2017)
found at http://aviationweather.gov/adds/tafs/
 
Forecast for: FAPE (PORT ELIZABETH , ZA)
Text: TAF AMD FAPE 210830Z 2106/2206 03007KT 9999 FEW080TCU
Forecast period: 0600 to 1100 UTC 21 September 2017
Forecast type: FROM: standard forecast or significant change
Winds: from the NNE (30 degrees) at 8 MPH (7 knots; 3.6 m/s)
Visibility: 6 or more miles (10+ km)
Clouds: few clouds at 8000 feet AGL
Weather: no significant weather forecast for this period
Text: BECMG 2111/2113 36005KT
Forecast period: 1100 to 1700 UTC 21 September 2017
Forecast type: BECOMING: Conditions expected to become as follows by 1300 UTC 21 September 2017
Winds: from the N (360 degrees) at 6 MPH (5 knots; 2.6 m/s)
Visibility: 6 or more miles (10+ km)
Clouds: few clouds at 8000 feet AGL
Weather: no significant weather forecast for this period
Text: BECMG 2117/2119 24015KT FEW015
Forecast period: 1700 UTC 21 September 2017 to 0600 UTC 22 September 2017
Forecast type: BECOMING: Conditions expected to become as follows by 1900 UTC 21 September 2017
Winds: from the WSW (240 degrees) at 17 MPH (15 knots; 7.8 m/s)
Visibility: 6 or more miles (10+ km)
Clouds: few clouds at 1500 feet AGL
Weather: no significant weather forecast for this period
Text: TEMPO 2119/2206 24015G25KT
Forecast period: 1900 UTC 21 September 2017 to 0600 UTC 22 September 2017
Forecast type: TEMPORARY: The following changes expected for less than half the time period
Winds: from the WSW (240 degrees) at 17 MPH (15 knots; 7.8 m/s)
gusting to 29 MPH (25 knots; 13.0 m/s)
Weather: no significant weather forecast for this period
Text: PROB30
Forecast period: 0000 to 0600 UTC 22 September 2017
Forecast type: TEMPORARY: The following changes expected for less than half the time period
Ceiling: 1400 feet AGL
Clouds: broken clouds at 1400 feet AGL
Weather: no significant weather forecast for this period

Array
Richards Bay - South Africa, FATB

ADDS - TAFS form results

Aviation Digital Data Service (ADDS)

Output produced by TAFs form (1206 UTC 21 September 2017)
found at http://aviationweather.gov/adds/tafs/
 
You entered "FATB"

Sorry, either there are no data available for your request or you did not enter any valid ICAO airport abbreviations.

See stations.txt for a list of known METAR and TAF locations. Then go back to the ADDS METARs or TAFs page and try again
 
Please try again and, if problems persist, then send mail to ncep.awc.adds@noaa.gov
Array
Upington - South Africa, FAUP

ADDS - TAFS form results

Aviation Digital Data Service (ADDS)

Output produced by TAFs form (1206 UTC 21 September 2017)
found at http://aviationweather.gov/adds/tafs/
 
Forecast for: FAUP (UPINGTON/PIERRE , ZA)
Text: TAF FAUP 211000Z 2112/2212 35015G25KT CAVOK
Forecast period: 1200 to 1600 UTC 21 September 2017
Forecast type: FROM: standard forecast or significant change
Winds: from the N (350 degrees) at 17 MPH (15 knots; 7.8 m/s)
gusting to 29 MPH (25 knots; 13.0 m/s)
Visibility: 6 or more miles (10+ km)
Clouds: not forecast
Weather: NSW  (no significant weather)
Text: FM211600 01005KT CAVOK
Forecast period: 1600 UTC 21 September 2017 to 0600 UTC 22 September 2017
Forecast type: FROM: standard forecast or significant change
Winds: from the N (10 degrees) at 6 MPH (5 knots; 2.6 m/s)
Visibility: 6 or more miles (10+ km)
Clouds: not forecast
Weather: NSW  (no significant weather)
Text: PROB40
Forecast period: 1600 UTC 21 September 2017 to 0000 UTC 22 September 2017
Forecast type: TEMPORARY: The following changes expected for less than half the time period
Clouds: scattered clouds at 6000 feet AGL
Weather: no significant weather forecast for this period
Text: TEMPO 2116/2124 SCT060TCU
Forecast period: 0600 to 1200 UTC 22 September 2017
Forecast type: BECOMING: Conditions expected to become as follows by 0800 UTC 22 September 2017
Winds: from the WNW (300 degrees) at 12 MPH (10 knots; 5.2 m/s)
Visibility: 6 or more miles (10+ km)
Weather: NSW  (no significant weather)

Array
Wonderboom - South Africa, FAWB

ADDS - TAFS form results

Aviation Digital Data Service (ADDS)

Output produced by TAFs form (1206 UTC 21 September 2017)
found at http://aviationweather.gov/adds/tafs/
 
Forecast for: FAWB (WONDERBOOM/PRETO, ZA)
Text: TAF FAWB 210900Z 2110/2118 36007KT CAVOK TX31/2113Z TN22/2118Z
Forecast period: 1000 to 1800 UTC 21 September 2017
Forecast type: FROM: standard forecast or significant change
Winds: from the N (360 degrees) at 8 MPH (7 knots; 3.6 m/s)
Visibility: 6 or more miles (10+ km)
Clouds: not forecast
Weather: no significant weather forecast for this period

Array